createdAt,value
2022-10-31T00:01:32.281Z,14.00
2022-10-31T00:03:58.941Z,17.42
2022-10-31T00:06:26.096Z,10.63
2022-10-31T00:08:55.278Z,15.63
2022-10-31T00:11:22.138Z,13.13
2022-10-31T00:13:48.828Z,16.95
2022-10-31T00:16:17.671Z,15.18
2022-10-31T00:18:44.668Z,15.13
2022-10-31T00:21:11.292Z,16.02
2022-10-31T00:23:37.899Z,20.05
2022-10-31T00:26:06.372Z,16.90
2022-10-31T00:28:33.231Z,18.30
2022-10-31T00:31:05.271Z,17.13
2022-10-31T00:33:35.658Z,22.73
2022-10-31T00:36:05.579Z,15.50
2022-10-31T00:38:32.408Z,16.45
2022-10-31T00:40:58.934Z,15.35
2022-10-31T00:43:28.012Z,16.33
2022-10-31T00:45:54.522Z,10.20
2022-10-31T00:48:25.520Z,14.32
2022-10-31T00:50:52.044Z,9.65
2022-10-31T00:53:18.628Z,12.80
2022-10-31T00:55:45.177Z,12.23
2022-10-31T00:58:11.722Z,12.43
2022-10-31T01:00:38.354Z,12.43
2022-10-31T01:03:04.902Z,15.18
2022-10-31T01:05:36.158Z,13.48
2022-10-31T01:08:02.662Z,14.95
2022-10-31T01:10:29.204Z,14.00
2022-10-31T01:12:55.726Z,14.25
2022-10-31T01:15:23.506Z,16.58
2022-10-31T01:17:50.893Z,18.08
2022-10-31T01:20:18.206Z,16.85
2022-10-31T01:22:44.852Z,17.58
2022-10-31T01:25:11.793Z,14.73
2022-10-31T01:27:38.351Z,14.90
2022-10-31T01:30:06.318Z,9.73
2022-10-31T01:32:33.286Z,12.63
2022-10-31T01:34:59.880Z,9.77
2022-10-31T01:37:26.475Z,8.77
2022-10-31T01:39:53.038Z,9.38
2022-10-31T01:42:22.607Z,7.82
2022-10-31T01:44:56.129Z,8.82
2022-10-31T01:47:33.480Z,9.00
2022-10-31T01:50:03.563Z,13.07
2022-10-31T01:52:39.802Z,18.75
2022-10-31T01:55:12.836Z,14.38
2022-10-31T01:57:42.568Z,14.02
2022-10-31T02:00:10.706Z,11.95
2022-10-31T02:02:37.606Z,12.02
2022-10-31T02:05:11.457Z,12.13
2022-10-31T02:10:07.809Z,15.23
2022-10-31T02:12:37.113Z,11.73
2022-10-31T02:15:04.834Z,15.10
2022-10-31T02:17:32.742Z,16.38
2022-10-31T02:20:35.828Z,13.68
2022-10-31T02:23:27.165Z,15.48
2022-10-31T02:26:11.690Z,14.13
2022-10-31T02:28:58.563Z,16.92
2022-10-31T02:31:33.788Z,16.67
2022-10-31T02:34:09.975Z,12.85
2022-10-31T02:36:48.179Z,15.38
2022-10-31T02:39:30.131Z,16.17
2022-10-31T02:42:14.892Z,15.30
2022-10-31T02:44:51.114Z,12.38
2022-10-31T02:47:28.580Z,13.70
2022-10-31T02:50:00.683Z,14.00
2022-10-31T02:52:27.137Z,15.52
2022-10-31T02:54:54.079Z,14.55
2022-10-31T02:57:28.152Z,15.82
2022-10-31T02:59:59.503Z,13.80
2022-10-31T03:02:29.143Z,12.05
2022-10-31T03:05:10.369Z,16.52
2022-10-31T03:07:46.098Z,14.30
2022-10-31T03:10:32.813Z,15.00
2022-10-31T03:13:05.700Z,10.23
2022-10-31T03:15:36.507Z,17.10
2022-10-31T03:18:10.466Z,13.90
2022-10-31T03:20:53.412Z,25.50
2022-10-31T03:23:25.525Z,29.98
2022-10-31T03:25:55.028Z,26.65
2022-10-31T03:28:28.098Z,19.88
2022-10-31T03:30:55.814Z,26.13
2022-10-31T03:33:29.341Z,29.00
2022-10-31T03:35:58.373Z,20.67
2022-10-31T03:38:24.921Z,21.67
2022-10-31T03:40:54.794Z,20.23
2022-10-31T03:43:29.964Z,18.65
2022-10-31T03:45:57.394Z,23.00
2022-10-31T03:48:24.660Z,25.75
2022-10-31T03:50:56.778Z,15.30
2022-10-31T03:53:33.167Z,23.65
2022-10-31T03:56:02.348Z,14.63
2022-10-31T03:58:38.248Z,17.00
2022-10-31T04:01:14.814Z,24.20
2022-10-31T04:03:43.282Z,16.88
2022-10-31T04:06:13.176Z,18.58
2022-10-31T04:08:45.280Z,14.60
2022-10-31T04:11:14.881Z,18.73
2022-10-31T04:13:45.064Z,18.40
2022-10-31T04:16:16.900Z,17.88
2022-10-31T04:18:44.129Z,18.30
2022-10-31T04:21:10.633Z,11.15
2022-10-31T04:23:37.411Z,12.35
2022-10-31T04:26:04.554Z,9.13
2022-10-31T04:28:31.127Z,15.98
2022-10-31T04:30:57.676Z,8.00
2022-10-31T04:33:24.198Z,9.63
2022-10-31T04:35:50.747Z,14.13
2022-10-31T04:38:17.287Z,12.23
2022-10-31T04:40:43.910Z,12.32
2022-10-31T04:43:10.481Z,9.40
2022-10-31T04:45:38.249Z,12.43
2022-10-31T04:48:05.065Z,13.35
2022-10-31T04:50:31.587Z,9.13
2022-10-31T04:52:58.259Z,11.30
2022-10-31T04:55:24.797Z,12.05
2022-10-31T04:57:51.922Z,8.60
2022-10-31T05:00:23.193Z,10.45
2022-10-31T05:02:51.625Z,11.27
2022-10-31T05:05:21.177Z,17.10
2022-10-31T05:07:49.215Z,18.08
2022-10-31T05:10:19.422Z,15.20
2022-10-31T05:12:50.464Z,16.17
2022-10-31T05:15:18.720Z,16.55
2022-10-31T05:17:45.868Z,13.20
2022-10-31T05:20:16.893Z,13.43
2022-10-31T05:22:48.388Z,15.00
2022-10-31T05:25:15.684Z,12.95
2022-10-31T05:27:50.045Z,13.45
2022-10-31T05:30:25.417Z,16.85
2022-10-31T05:32:52.388Z,13.52
2022-10-31T05:35:23.212Z,13.95
2022-10-31T05:37:50.152Z,17.48
2022-10-31T05:40:18.705Z,15.35
2022-10-31T05:42:45.783Z,18.83
2022-10-31T05:45:15.801Z,17.10
2022-10-31T05:47:43.030Z,17.80
2022-10-31T05:50:10.936Z,17.90
2022-10-31T05:52:37.644Z,16.83
2022-10-31T05:55:04.680Z,19.05
2022-10-31T05:57:33.190Z,25.75
2022-10-31T05:59:59.782Z,16.00
2022-10-31T06:02:27.736Z,20.67
2022-10-31T06:04:54.377Z,20.23
2022-10-31T06:07:20.985Z,24.92
2022-10-31T06:09:47.576Z,28.08
2022-10-31T06:12:14.075Z,36.03
2022-10-31T06:14:40.595Z,27.42
2022-10-31T06:17:07.167Z,29.25
2022-10-31T06:19:36.057Z,26.63
2022-10-31T06:22:03.284Z,22.40
2022-10-31T06:24:29.787Z,20.92
2022-10-31T06:26:56.309Z,24.20
2022-10-31T06:29:23.187Z,24.83
2022-10-31T06:31:52.622Z,26.92
2022-10-31T06:34:19.143Z,31.95
2022-10-31T06:36:47.758Z,27.65
2022-10-31T06:39:15.001Z,24.02
2022-10-31T06:41:42.522Z,22.00
2022-10-31T06:44:09.184Z,25.45
2022-10-31T06:46:35.712Z,33.90
2022-10-31T06:49:02.233Z,33.58
2022-10-31T06:51:28.772Z,44.50
2022-10-31T06:53:55.347Z,36.65
2022-10-31T06:56:21.902Z,39.30
2022-10-31T06:58:50.805Z,48.13
2022-10-31T07:01:17.444Z,36.42
2022-10-31T07:03:44.082Z,32.78
2022-10-31T07:06:10.608Z,28.60
2022-10-31T07:08:37.241Z,23.63
2022-10-31T07:11:03.810Z,24.52
2022-10-31T07:13:30.412Z,29.48
2022-10-31T07:16:02.287Z,32.25
2022-10-31T07:18:29.160Z,37.55
2022-10-31T07:20:55.776Z,29.85
2022-10-31T07:23:23.537Z,23.88
2022-10-31T07:25:55.519Z,23.60
2022-10-31T07:28:24.570Z,21.40
2022-10-31T07:30:55.845Z,16.42
2022-10-31T07:33:23.295Z,9.93
2022-10-31T07:35:50.183Z,8.77
2022-10-31T07:38:16.862Z,7.32
2022-10-31T07:40:43.677Z,5.35
2022-10-31T07:43:14.666Z,10.93
2022-10-31T07:45:41.775Z,6.60
2022-10-31T07:48:10.785Z,9.77
2022-10-31T07:50:37.376Z,7.03
2022-10-31T07:53:04.231Z,9.75
2022-10-31T07:55:31.439Z,8.43
2022-10-31T07:57:59.597Z,8.00
2022-10-31T08:00:27.439Z,5.18
2022-10-31T08:03:01.956Z,4.80
2022-10-31T08:05:29.895Z,8.38
2022-10-31T08:07:57.167Z,7.20
2022-10-31T08:10:24.933Z,9.30
2022-10-31T08:12:59.188Z,5.68
2022-10-31T08:15:26.434Z,6.93
2022-10-31T08:17:52.959Z,4.88
2022-10-31T08:20:20.193Z,4.95
2022-10-31T08:22:57.441Z,6.85
2022-10-31T08:25:27.196Z,6.68
2022-10-31T08:27:55.447Z,5.30
2022-10-31T08:30:24.068Z,10.10
2022-10-31T08:33:08.401Z,10.30
2022-10-31T08:35:35.033Z,8.00
2022-10-31T08:38:02.941Z,11.02
2022-10-31T08:40:31.883Z,22.15
2022-10-31T08:43:07.117Z,8.13
2022-10-31T08:45:34.897Z,5.28
2022-10-31T08:48:04.541Z,7.05
2022-10-31T08:50:36.153Z,10.25
2022-10-31T08:53:05.961Z,9.07
2022-10-31T08:55:35.677Z,5.10
2022-10-31T08:58:06.108Z,4.90
2022-10-31T09:00:34.043Z,6.25
2022-10-31T09:03:06.199Z,7.05
2022-10-31T09:05:33.625Z,6.38
2022-10-31T09:08:02.413Z,5.10
2022-10-31T09:10:30.038Z,5.40
2022-10-31T09:13:18.637Z,8.18
2022-10-31T09:15:47.042Z,10.18
2022-10-31T09:18:15.950Z,5.82
2022-10-31T09:20:44.029Z,10.25
2022-10-31T09:23:16.858Z,10.68
2022-10-31T09:25:50.013Z,5.93
2022-10-31T09:28:19.250Z,5.88
2022-10-31T09:30:48.821Z,6.65
2022-10-31T09:33:15.662Z,8.63
2022-10-31T09:35:42.743Z,9.38
2022-10-31T09:38:20.024Z,8.05
2022-10-31T09:41:11.393Z,10.48
2022-10-31T09:43:49.435Z,9.68
2022-10-31T09:46:22.076Z,9.77
2022-10-31T09:49:06.965Z,9.38
2022-10-31T09:51:35.575Z,11.23
2022-10-31T09:54:13.473Z,11.35
2022-10-31T09:56:44.480Z,13.63
2022-10-31T09:59:40.013Z,11.65
2022-10-31T10:02:35.770Z,11.43
2022-10-31T10:05:05.763Z,17.58
2022-10-31T10:08:01.871Z,22.92
2022-10-31T10:10:52.603Z,20.60
2022-10-31T10:13:19.205Z,20.33
2022-10-31T10:15:54.722Z,23.25
2022-10-31T10:18:31.921Z,21.65
2022-10-31T10:21:27.792Z,20.67
2022-10-31T10:24:16.245Z,24.23
2022-10-31T10:26:51.657Z,23.20
2022-10-31T10:29:46.595Z,20.95
2022-10-31T10:32:23.311Z,19.45
2022-10-31T10:34:59.800Z,18.60
2022-10-31T10:37:39.359Z,18.70
2022-10-31T10:40:22.414Z,20.17
2022-10-31T10:43:23.623Z,20.27
2022-10-31T10:46:34.976Z,22.83
2022-10-31T10:49:20.493Z,18.23
2022-10-31T10:52:35.234Z,23.02
2022-10-31T10:55:38.288Z,24.90
2022-10-31T10:58:09.315Z,21.70
2022-10-31T11:00:44.022Z,18.42
2022-10-31T11:03:14.566Z,19.77
2022-10-31T11:05:53.133Z,23.20
2022-10-31T11:08:27.686Z,17.98
2022-10-31T11:11:05.465Z,24.17
2022-10-31T11:13:33.784Z,20.65
2022-10-31T11:16:08.690Z,22.63
2022-10-31T11:18:40.245Z,24.75
2022-10-31T11:21:07.157Z,20.17
2022-10-31T11:23:34.446Z,22.95
2022-10-31T11:26:06.128Z,17.42
2022-10-31T11:28:38.003Z,23.92
2022-10-31T11:31:14.858Z,21.90
2022-10-31T11:33:48.928Z,21.52
2022-10-31T11:36:24.847Z,15.68
2022-10-31T11:38:52.913Z,21.45
2022-10-31T11:41:39.503Z,20.55
2022-10-31T11:44:14.344Z,17.92
2022-10-31T11:46:53.369Z,24.20
2022-10-31T11:49:43.320Z,17.98
2022-10-31T11:52:44.659Z,14.57
2022-10-31T11:55:11.234Z,16.67
2022-10-31T11:57:46.787Z,20.60
2022-10-31T12:00:22.621Z,17.50
2022-10-31T12:02:49.786Z,12.02
2022-10-31T12:05:23.447Z,20.65
2022-10-31T12:10:20.902Z,13.43
2022-10-31T12:13:18.188Z,19.77
2022-10-31T12:15:55.217Z,16.02
2022-10-31T12:18:43.534Z,18.85
2022-10-31T12:21:21.487Z,19.25
2022-10-31T12:23:56.897Z,16.33
2022-10-31T12:26:58.370Z,20.20
2022-10-31T12:29:27.754Z,19.05
2022-10-31T12:32:09.462Z,21.35
2022-10-31T12:35:01.228Z,16.75
2022-10-31T12:37:49.508Z,20.75
2022-10-31T12:40:21.996Z,18.92
2022-10-31T12:43:03.921Z,17.98
2022-10-31T12:45:52.637Z,11.55
2022-10-31T12:48:43.984Z,18.20
2022-10-31T12:51:30.931Z,14.30
2022-10-31T12:54:25.310Z,18.13
2022-10-31T12:57:03.911Z,15.43
2022-10-31T12:59:37.163Z,14.48
2022-10-31T13:02:24.230Z,13.82
2022-10-31T13:04:56.613Z,18.50
2022-10-31T13:07:41.478Z,19.02
2022-10-31T13:10:32.610Z,16.75
2022-10-31T13:13:11.845Z,15.65
2022-10-31T13:15:58.902Z,18.20
2022-10-31T13:18:41.408Z,23.02
2022-10-31T13:21:20.147Z,22.85
2022-10-31T13:23:52.021Z,21.02
2022-10-31T13:26:37.942Z,16.25
2022-10-31T13:29:32.678Z,19.98
2022-10-31T13:32:01.891Z,23.92
2022-10-31T13:34:34.312Z,13.50
2022-10-31T13:37:22.292Z,19.17
2022-10-31T13:40:19.687Z,20.90
2022-10-31T13:42:56.419Z,17.85
2022-10-31T13:45:25.082Z,22.20
2022-10-31T13:48:17.262Z,22.30
2022-10-31T13:50:56.479Z,15.70
2022-10-31T13:53:36.945Z,21.02
2022-10-31T13:56:09.508Z,28.65
2022-10-31T13:58:38.762Z,21.50
2022-10-31T14:01:11.569Z,23.15
2022-10-31T14:06:44.134Z,25.88
2022-10-31T14:09:33.075Z,24.50
2022-10-31T14:12:05.004Z,20.60
2022-10-31T14:14:36.300Z,26.05
2022-10-31T14:17:03.388Z,23.70
2022-10-31T14:19:30.000Z,22.48
2022-10-31T14:21:56.610Z,41.25
2022-10-31T14:24:26.210Z,21.77
2022-10-31T14:26:57.353Z,21.05
2022-10-31T14:29:27.099Z,21.60
2022-10-31T14:31:56.499Z,27.77
2022-10-31T14:34:36.614Z,24.55
2022-10-31T14:37:15.551Z,27.60
2022-10-31T14:40:06.737Z,30.58
2022-10-31T14:42:56.296Z,20.75
2022-10-31T14:45:47.617Z,19.17
2022-10-31T14:48:38.359Z,25.65
2022-10-31T14:51:16.057Z,26.80
2022-10-31T14:53:55.947Z,15.50
2022-10-31T14:56:27.848Z,17.25
2022-10-31T14:58:57.788Z,31.23
2022-10-31T15:01:29.673Z,18.60
2022-10-31T15:04:22.434Z,30.83
2022-10-31T15:06:55.059Z,31.33
2022-10-31T15:09:32.587Z,20.65
2022-10-31T15:12:21.707Z,20.63
2022-10-31T15:14:48.272Z,20.58
2022-10-31T15:17:15.014Z,19.70
2022-10-31T15:19:43.311Z,20.73
2022-10-31T15:22:17.297Z,18.13
2022-10-31T15:24:46.867Z,16.15
2022-10-31T15:27:16.646Z,28.75
2022-10-31T15:29:54.932Z,18.42
2022-10-31T15:32:29.466Z,22.65
2022-10-31T15:34:58.124Z,25.50
2022-10-31T15:37:26.791Z,31.80
2022-10-31T15:39:53.522Z,20.48
2022-10-31T15:42:22.970Z,21.73
2022-10-31T15:44:56.775Z,20.08
2022-10-31T15:47:25.465Z,21.70
2022-10-31T15:49:55.226Z,22.48
2022-10-31T15:52:33.068Z,24.63
2022-10-31T15:55:02.877Z,19.33
2022-10-31T15:57:29.930Z,22.33
2022-10-31T15:59:56.740Z,25.17
2022-10-31T16:02:28.282Z,35.17
2022-10-31T16:05:02.425Z,28.50
2022-10-31T16:07:30.439Z,24.55
2022-10-31T16:10:01.798Z,25.58
2022-10-31T16:12:43.704Z,28.60
2022-10-31T16:15:18.600Z,28.17
2022-10-31T16:17:48.137Z,29.17
2022-10-31T16:20:26.364Z,28.40
2022-10-31T16:22:54.721Z,23.52
2022-10-31T16:25:25.170Z,22.98
2022-10-31T16:27:54.790Z,21.45
2022-10-31T16:30:47.878Z,21.67
2022-10-31T16:33:36.792Z,23.83
2022-10-31T16:36:36.497Z,26.25
2022-10-31T16:39:04.134Z,19.27
2022-10-31T16:41:30.947Z,23.23
2022-10-31T16:43:57.583Z,21.15
2022-10-31T16:46:27.090Z,19.25
2022-10-31T16:48:54.917Z,28.02
2022-10-31T16:51:21.431Z,18.45
2022-10-31T16:53:48.035Z,22.27
2022-10-31T16:56:24.512Z,18.20
2022-10-31T16:58:51.118Z,21.27
2022-10-31T17:01:17.822Z,19.13
2022-10-31T17:03:44.476Z,21.42
2022-10-31T17:06:14.333Z,28.60
2022-10-31T17:08:43.209Z,24.75
2022-10-31T17:11:22.152Z,30.40
2022-10-31T17:13:51.658Z,25.58
2022-10-31T17:16:18.238Z,21.98
2022-10-31T17:18:46.149Z,20.55
2022-10-31T17:21:19.043Z,19.15
2022-10-31T17:23:45.631Z,17.43
2022-10-31T17:26:12.178Z,17.90
2022-10-31T17:28:38.739Z,24.02
2022-10-31T17:31:20.263Z,22.60
2022-10-31T17:33:46.915Z,23.15
2022-10-31T17:36:13.505Z,30.63
2022-10-31T17:38:40.025Z,21.70
2022-10-31T17:41:11.269Z,21.15
2022-10-31T17:43:38.437Z,21.77
2022-10-31T17:46:05.519Z,23.08
2022-10-31T17:48:34.341Z,24.13
2022-10-31T17:51:03.185Z,26.30
2022-10-31T17:53:34.609Z,24.23
2022-10-31T17:56:06.691Z,21.95
2022-10-31T17:58:35.540Z,23.33
2022-10-31T18:01:12.880Z,25.35
2022-10-31T18:03:40.059Z,25.42
2022-10-31T18:06:07.276Z,23.35
2022-10-31T18:08:36.002Z,19.73
2022-10-31T18:11:10.968Z,30.30
2022-10-31T18:13:38.282Z,64.28
2022-10-31T18:16:14.458Z,78.30
2022-10-31T18:18:41.651Z,50.72
2022-10-31T18:21:11.582Z,66.45
2022-10-31T18:23:38.172Z,86.50
2022-10-31T18:26:04.988Z,72.47
2022-10-31T18:28:31.562Z,50.90
2022-10-31T18:31:01.287Z,48.95
2022-10-31T18:33:30.686Z,45.22
2022-10-31T18:35:57.303Z,38.75
2022-10-31T18:38:23.866Z,37.75
2022-10-31T18:40:53.367Z,33.30
2022-10-31T18:43:20.041Z,32.42
2022-10-31T18:45:48.659Z,33.45
2022-10-31T18:48:17.454Z,32.85
2022-10-31T18:50:46.892Z,33.40
2022-10-31T18:53:13.489Z,42.80
2022-10-31T18:55:44.150Z,46.25
2022-10-31T18:58:15.799Z,35.05
2022-10-31T19:00:45.823Z,42.40
2022-10-31T19:03:15.110Z,52.60
2022-10-31T19:05:44.014Z,51.83
2022-10-31T19:08:13.478Z,48.78
2022-10-31T19:10:40.677Z,57.40
2022-10-31T19:13:07.670Z,49.97
2022-10-31T19:15:35.586Z,63.03
2022-10-31T19:18:04.870Z,61.30
2022-10-31T19:20:31.945Z,94.88
2022-10-31T19:23:01.025Z,105.45
2022-10-31T19:25:27.883Z,93.75
2022-10-31T19:27:54.409Z,74.63
2022-10-31T19:30:21.621Z,51.28
2022-10-31T19:32:48.233Z,63.35
2022-10-31T19:35:15.201Z,56.95
2022-10-31T19:37:42.425Z,47.72
2022-10-31T19:40:10.914Z,49.75
2022-10-31T19:42:37.585Z,47.10
2022-10-31T19:45:05.032Z,40.03
2022-10-31T19:47:31.688Z,39.83
2022-10-31T19:49:58.363Z,40.72
2022-10-31T19:52:24.985Z,38.95
2022-10-31T19:54:52.080Z,32.05
2022-10-31T19:57:23.187Z,32.92
2022-10-31T19:59:57.300Z,30.50
2022-10-31T20:02:23.838Z,29.92
2022-10-31T20:04:50.341Z,33.55
2022-10-31T20:07:16.940Z,30.02
2022-10-31T20:09:46.063Z,30.23
2022-10-31T20:12:12.666Z,38.05
2022-10-31T20:14:39.184Z,32.15
2022-10-31T20:17:06.039Z,37.20
2022-10-31T20:19:32.798Z,36.28
2022-10-31T20:21:59.657Z,41.83
2022-10-31T20:24:26.217Z,34.60
2022-10-31T20:26:52.923Z,41.55
2022-10-31T20:29:20.068Z,34.42
2022-10-31T20:31:47.411Z,36.50
2022-10-31T20:34:17.219Z,34.20
2022-10-31T20:36:43.806Z,32.28
2022-10-31T20:39:10.499Z,36.55
2022-10-31T20:41:39.083Z,35.88
2022-10-31T20:44:06.396Z,36.67
2022-10-31T20:46:33.119Z,31.83
2022-10-31T20:49:01.951Z,31.65
2022-10-31T20:51:29.097Z,30.38
2022-10-31T20:53:57.384Z,32.85
2022-10-31T20:56:26.021Z,33.47
2022-10-31T20:58:56.814Z,29.60
2022-10-31T21:01:27.030Z,29.95
2022-10-31T21:03:53.789Z,28.60
2022-10-31T21:06:23.267Z,31.33
2022-10-31T21:08:50.919Z,32.90
2022-10-31T21:11:19.769Z,41.60
2022-10-31T21:13:47.735Z,39.25
2022-10-31T21:16:20.036Z,38.20
2022-10-31T21:18:47.672Z,40.83
2022-10-31T21:21:27.570Z,42.35
2022-10-31T21:24:01.716Z,36.25
2022-10-31T21:26:30.997Z,39.95
2022-10-31T21:28:58.632Z,40.47
2022-10-31T21:31:28.386Z,34.65
2022-10-31T21:33:55.876Z,33.65
2022-10-31T21:36:22.852Z,36.53
2022-10-31T21:38:51.373Z,37.95
2022-10-31T21:41:19.517Z,38.20
2022-10-31T21:43:48.262Z,40.33
2022-10-31T21:46:20.128Z,52.15
2022-10-31T21:48:47.186Z,58.10
2022-10-31T21:51:16.377Z,60.38
2022-10-31T21:54:01.397Z,59.38
2022-10-31T21:56:28.490Z,55.33
2022-10-31T21:58:55.753Z,48.65
2022-10-31T22:01:24.236Z,46.53
2022-10-31T22:03:51.213Z,56.97
2022-10-31T22:06:18.229Z,46.90
2022-10-31T22:08:47.046Z,44.25
2022-10-31T22:11:16.653Z,37.40
2022-10-31T22:13:45.126Z,34.72
2022-10-31T22:16:23.005Z,33.63
2022-10-31T22:18:53.945Z,37.35
2022-10-31T22:21:26.437Z,27.80
2022-10-31T22:24:02.048Z,33.50
2022-10-31T22:26:32.370Z,31.20
2022-10-31T22:29:02.496Z,32.00
2022-10-31T22:31:30.984Z,28.20
2022-10-31T22:33:57.846Z,32.13
2022-10-31T22:36:29.839Z,35.30
2022-10-31T22:38:57.244Z,29.10
2022-10-31T22:41:26.614Z,35.05
2022-10-31T22:43:54.660Z,34.97
2022-10-31T22:46:26.406Z,37.90
2022-10-31T22:48:55.957Z,37.47
2022-10-31T22:51:27.930Z,35.85
2022-10-31T22:53:57.909Z,30.52
2022-10-31T22:56:30.281Z,30.08
2022-10-31T22:58:57.656Z,25.23
2022-10-31T23:01:29.778Z,26.02
2022-10-31T23:03:56.635Z,23.95
2022-10-31T23:06:26.527Z,26.35
2022-10-31T23:08:53.649Z,20.33
2022-10-31T23:11:25.802Z,26.15
2022-10-31T23:14:10.036Z,28.30
2022-10-31T23:16:46.891Z,29.20
2022-10-31T23:19:25.278Z,31.10
2022-10-31T23:21:54.772Z,26.15
2022-10-31T23:24:44.801Z,31.73
2022-10-31T23:27:17.912Z,27.05
2022-10-31T23:29:44.526Z,29.45
2022-10-31T23:32:22.365Z,26.15
2022-10-31T23:34:51.188Z,23.15
2022-10-31T23:37:19.378Z,23.15
2022-10-31T23:39:46.512Z,26.50
2022-10-31T23:42:13.899Z,29.58
2022-10-31T23:44:40.661Z,23.83
2022-10-31T23:47:07.482Z,32.08
2022-10-31T23:49:34.787Z,28.02
2022-10-31T23:52:02.064Z,27.15
2022-10-31T23:54:28.692Z,37.03
2022-10-31T23:56:55.954Z,26.65
2022-10-31T23:59:24.731Z,29.88
